sensor_id;sensor_type;location;lat;lon;timestamp;pressure;altitude;pressure_sealevel;temperature;humidity
78841;BME280;68379;47.190;27.558;2023-03-21T00:01:12;99834.20;;;4.92;74.76
78841;BME280;68379;47.190;27.558;2023-03-21T00:03:44;99830.30;;;4.96;74.47
78841;BME280;68379;47.190;27.558;2023-03-21T00:06:18;99825.50;;;4.99;74.96
78841;BME280;68379;47.190;27.558;2023-03-21T00:08:50;99824.09;;;5.00;74.64
78841;BME280;68379;47.190;27.558;2023-03-21T00:11:22;99825.40;;;5.05;74.70
78841;BME280;68379;47.190;27.558;2023-03-21T00:13:54;99822.71;;;5.10;75.03
78841;BME280;68379;47.190;27.558;2023-03-21T00:16:32;99819.83;;;5.14;75.13
78841;BME280;68379;47.190;27.558;2023-03-21T00:19:05;99807.68;;;5.17;74.79
78841;BME280;68379;47.190;27.558;2023-03-21T00:21:39;99796.61;;;5.19;74.71
78841;BME280;68379;47.190;27.558;2023-03-21T00:24:12;99793.23;;;5.21;74.45
78841;BME280;68379;47.190;27.558;2023-03-21T00:26:44;99794.41;;;5.25;74.55
78841;BME280;68379;47.190;27.558;2023-03-21T00:29:16;99795.88;;;5.31;75.06
78841;BME280;68379;47.190;27.558;2023-03-21T00:31:48;99796.52;;;5.34;74.98
78841;BME280;68379;47.190;27.558;2023-03-21T00:34:20;99790.05;;;5.33;74.68
78841;BME280;68379;47.190;27.558;2023-03-21T00:36:52;99792.36;;;5.32;74.42
78841;BME280;68379;47.190;27.558;2023-03-21T00:39:24;99794.77;;;5.34;74.36
78841;BME280;68379;47.190;27.558;2023-03-21T00:41:56;99789.19;;;5.33;74.36
78841;BME280;68379;47.190;27.558;2023-03-21T00:44:28;99792.70;;;5.32;74.34
78841;BME280;68379;47.190;27.558;2023-03-21T00:47:04;99793.73;;;5.33;74.24
78841;BME280;68379;47.190;27.558;2023-03-21T00:49:36;99792.20;;;5.31;74.51
78841;BME280;68379;47.190;27.558;2023-03-21T00:52:09;99793.90;;;5.23;74.79
78841;BME280;68379;47.190;27.558;2023-03-21T00:54:41;99791.17;;;5.20;74.88
78841;BME280;68379;47.190;27.558;2023-03-21T00:57:13;99791.39;;;5.17;74.66
78841;BME280;68379;47.190;27.558;2023-03-21T00:59:46;99788.06;;;5.17;74.61
78841;BME280;68379;47.190;27.558;2023-03-21T01:02:19;99790.31;;;5.19;74.63
78841;BME280;68379;47.190;27.558;2023-03-21T01:04:52;99783.84;;;5.18;74.61
78841;BME280;68379;47.190;27.558;2023-03-21T01:07:24;99781.53;;;5.20;74.48
78841;BME280;68379;47.190;27.558;2023-03-21T01:09:56;99780.96;;;5.22;74.58
78841;BME280;68379;47.190;27.558;2023-03-21T01:12:29;99776.25;;;5.22;74.81
78841;BME280;68379;47.190;27.558;2023-03-21T01:15:02;99776.95;;;5.21;74.59
78841;BME280;68379;47.190;27.558;2023-03-21T01:17:34;99775.72;;;5.22;74.70
78841;BME280;68379;47.190;27.558;2023-03-21T01:20:07;99773.05;;;5.24;74.69
78841;BME280;68379;47.190;27.558;2023-03-21T01:22:41;99774.19;;;5.29;74.81
78841;BME280;68379;47.190;27.558;2023-03-21T01:25:13;99776.73;;;5.32;74.57
78841;BME280;68379;47.190;27.558;2023-03-21T01:27:45;99778.58;;;5.38;74.41
78841;BME280;68379;47.190;27.558;2023-03-21T01:30:17;99774.45;;;5.43;74.50
78841;BME280;68379;47.190;27.558;2023-03-21T01:32:51;99771.23;;;5.45;74.68
78841;BME280;68379;47.190;27.558;2023-03-21T01:35:23;99773.17;;;5.45;74.74
78841;BME280;68379;47.190;27.558;2023-03-21T01:37:55;99776.34;;;5.44;74.87
78841;BME280;68379;47.190;27.558;2023-03-21T01:40:28;99776.06;;;5.41;74.86
78841;BME280;68379;47.190;27.558;2023-03-21T01:43:01;99772.29;;;5.37;75.06
78841;BME280;68379;47.190;27.558;2023-03-21T01:48:55;99760.02;;;5.27;74.86
78841;BME280;68379;47.190;27.558;2023-03-21T01:51:29;99751.66;;;5.25;74.88
78841;BME280;68379;47.190;27.558;2023-03-21T01:54:04;99750.45;;;5.24;74.71
78841;BME280;68379;47.190;27.558;2023-03-21T01:56:42;99753.39;;;5.26;74.64
78841;BME280;68379;47.190;27.558;2023-03-21T01:59:19;99754.27;;;5.26;74.59
78841;BME280;68379;47.190;27.558;2023-03-21T02:01:52;99758.52;;;5.24;74.45
78841;BME280;68379;47.190;27.558;2023-03-21T02:04:27;99758.95;;;5.19;74.80
78841;BME280;68379;47.190;27.558;2023-03-21T02:07:01;99755.26;;;5.11;74.99
78841;BME280;68379;47.190;27.558;2023-03-21T02:09:37;99765.64;;;5.09;74.91
78841;BME280;68379;47.190;27.558;2023-03-21T02:12:11;99768.88;;;5.04;75.10
78841;BME280;68379;47.190;27.558;2023-03-21T02:14:47;99768.40;;;5.01;75.21
78841;BME280;68379;47.190;27.558;2023-03-21T02:17:26;99768.80;;;4.98;75.44
78841;BME280;68379;47.190;27.558;2023-03-21T02:20:38;99766.92;;;4.95;75.52
78841;BME280;68379;47.190;27.558;2023-03-21T02:26:41;99764.48;;;4.94;75.08
78841;BME280;68379;47.190;27.558;2023-03-21T02:29:29;99760.46;;;4.95;75.01
78841;BME280;68379;47.190;27.558;2023-03-21T02:32:10;99764.69;;;4.93;75.55
78841;BME280;68379;47.190;27.558;2023-03-21T02:35:20;99763.16;;;4.91;75.40
78841;BME280;68379;47.190;27.558;2023-03-21T02:37:58;99761.92;;;4.91;75.18
78841;BME280;68379;47.190;27.558;2023-03-21T02:40:39;99758.75;;;4.92;75.19
78841;BME280;68379;47.190;27.558;2023-03-21T02:43:19;99758.52;;;4.95;75.41
78841;BME280;68379;47.190;27.558;2023-03-21T02:45:55;99747.89;;;5.02;75.53
78841;BME280;68379;47.190;27.558;2023-03-21T02:48:33;99742.35;;;5.08;75.85
78841;BME280;68379;47.190;27.558;2023-03-21T02:51:08;99732.59;;;5.15;76.10
78841;BME280;68379;47.190;27.558;2023-03-21T02:53:43;99728.33;;;5.18;76.06
78841;BME280;68379;47.190;27.558;2023-03-21T02:56:17;99727.40;;;5.20;76.48
78841;BME280;68379;47.190;27.558;2023-03-21T02:58:49;99730.50;;;5.24;76.54
78841;BME280;68379;47.190;27.558;2023-03-21T03:01:21;99726.05;;;5.28;76.45
78841;BME280;68379;47.190;27.558;2023-03-21T03:03:55;99722.70;;;5.28;76.74
78841;BME280;68379;47.190;27.558;2023-03-21T03:06:30;99723.56;;;5.29;76.42
78841;BME280;68379;47.190;27.558;2023-03-21T03:09:17;99740.34;;;5.32;76.07
78841;BME280;68379;47.190;27.558;2023-03-21T03:12:00;99746.39;;;5.35;75.81
78841;BME280;68379;47.190;27.558;2023-03-21T03:14:53;99740.59;;;5.36;75.60
78841;BME280;68379;47.190;27.558;2023-03-21T03:17:41;99735.63;;;5.30;75.72
78841;BME280;68379;47.190;27.558;2023-03-21T03:20:26;99735.47;;;5.20;75.81
78841;BME280;68379;47.190;27.558;2023-03-21T03:23:15;99728.39;;;5.06;75.94
78841;BME280;68379;47.190;27.558;2023-03-21T03:25:53;99725.05;;;4.87;76.04
78841;BME280;68379;47.190;27.558;2023-03-21T03:28:32;99730.73;;;4.74;76.10
78841;BME280;68379;47.190;27.558;2023-03-21T03:31:07;99729.13;;;4.65;76.33
78841;BME280;68379;47.190;27.558;2023-03-21T03:33:45;99725.70;;;4.59;77.68
78841;BME280;68379;47.190;27.558;2023-03-21T03:36:19;99724.58;;;4.54;76.98
78841;BME280;68379;47.190;27.558;2023-03-21T03:38:52;99725.73;;;4.49;76.93
78841;BME280;68379;47.190;27.558;2023-03-21T03:41:26;99731.73;;;4.43;77.32
78841;BME280;68379;47.190;27.558;2023-03-21T03:44:00;99724.27;;;4.40;77.42
78841;BME280;68379;47.190;27.558;2023-03-21T03:46:34;99722.58;;;4.37;77.62
78841;BME280;68379;47.190;27.558;2023-03-21T03:49:10;99720.56;;;4.32;78.28
78841;BME280;68379;47.190;27.558;2023-03-21T03:51:51;99719.08;;;4.26;78.47
78841;BME280;68379;47.190;27.558;2023-03-21T03:54:30;99720.34;;;4.24;78.16
78841;BME280;68379;47.190;27.558;2023-03-21T03:57:04;99719.63;;;4.24;78.66
78841;BME280;68379;47.190;27.558;2023-03-21T03:59:39;99714.93;;;4.23;78.66
78841;BME280;68379;47.190;27.558;2023-03-21T04:02:12;99716.11;;;4.25;79.08
78841;BME280;68379;47.190;27.558;2023-03-21T04:04:44;99713.66;;;4.26;78.96
78841;BME280;68379;47.190;27.558;2023-03-21T04:07:16;99716.45;;;4.28;79.13
78841;BME280;68379;47.190;27.558;2023-03-21T04:09:50;99718.86;;;4.29;78.80
78841;BME280;68379;47.190;27.558;2023-03-21T04:12:22;99720.05;;;4.31;79.15
78841;BME280;68379;47.190;27.558;2023-03-21T04:14:56;99720.60;;;4.30;79.10
78841;BME280;68379;47.190;27.558;2023-03-21T04:17:28;99718.89;;;4.28;79.05
78841;BME280;68379;47.190;27.558;2023-03-21T04:20:00;99724.32;;;4.26;79.27
78841;BME280;68379;47.190;27.558;2023-03-21T04:22:33;99728.21;;;4.24;78.77
78841;BME280;68379;47.190;27.558;2023-03-21T04:25:06;99727.91;;;4.21;78.61
78841;BME280;68379;47.190;27.558;2023-03-21T04:27:39;99723.94;;;4.17;78.34
78841;BME280;68379;47.190;27.558;2023-03-21T04:30:12;99726.80;;;4.13;78.50
78841;BME280;68379;47.190;27.558;2023-03-21T04:32:42;99727.34;;;4.12;79.17
78841;BME280;68379;47.190;27.558;2023-03-21T04:35:15;99724.40;;;4.10;79.31
78841;BME280;68379;47.190;27.558;2023-03-21T04:37:47;99729.70;;;4.07;79.35
78841;BME280;68379;47.190;27.558;2023-03-21T04:40:19;99728.34;;;4.03;80.08
78841;BME280;68379;47.190;27.558;2023-03-21T04:42:51;99734.16;;;3.99;80.03
78841;BME280;68379;47.190;27.558;2023-03-21T04:45:23;99729.43;;;4.00;79.32
78841;BME280;68379;47.190;27.558;2023-03-21T04:47:57;99728.71;;;4.02;79.85
78841;BME280;68379;47.190;27.558;2023-03-21T04:50:27;99728.36;;;4.02;79.74
78841;BME280;68379;47.190;27.558;2023-03-21T04:53:01;99724.00;;;4.01;79.94
78841;BME280;68379;47.190;27.558;2023-03-21T04:55:33;99722.59;;;4.03;80.48
78841;BME280;68379;47.190;27.558;2023-03-21T04:58:06;99723.60;;;4.05;80.03
78841;BME280;68379;47.190;27.558;2023-03-21T05:00:38;99723.36;;;4.09;80.03
78841;BME280;68379;47.190;27.558;2023-03-21T05:03:10;99730.77;;;4.16;80.16
78841;BME280;68379;47.190;27.558;2023-03-21T05:05:50;99726.72;;;4.18;80.01
78841;BME280;68379;47.190;27.558;2023-03-21T05:08:22;99731.53;;;4.24;79.99
78841;BME280;68379;47.190;27.558;2023-03-21T05:10:54;99735.30;;;4.29;80.07
78841;BME280;68379;47.190;27.558;2023-03-21T05:13:27;99732.02;;;4.37;79.45
78841;BME280;68379;47.190;27.558;2023-03-21T05:15:58;99724.74;;;4.44;79.52
78841;BME280;68379;47.190;27.558;2023-03-21T05:18:30;99726.24;;;4.49;79.52
78841;BME280;68379;47.190;27.558;2023-03-21T05:21:04;99728.65;;;4.51;79.57
78841;BME280;68379;47.190;27.558;2023-03-21T05:23:37;99727.38;;;4.55;79.45
78841;BME280;68379;47.190;27.558;2023-03-21T05:26:11;99727.45;;;4.60;79.05
78841;BME280;68379;47.190;27.558;2023-03-21T05:28:43;99725.22;;;4.68;79.13
78841;BME280;68379;47.190;27.558;2023-03-21T05:31:18;99730.31;;;4.77;79.11
78841;BME280;68379;47.190;27.558;2023-03-21T05:33:50;99729.09;;;4.86;79.06
78841;BME280;68379;47.190;27.558;2023-03-21T05:36:22;99726.98;;;4.97;78.66
78841;BME280;68379;47.190;27.558;2023-03-21T05:38:55;99729.58;;;5.08;78.42
78841;BME280;68379;47.190;27.558;2023-03-21T05:41:27;99733.10;;;5.16;78.25
78841;BME280;68379;47.190;27.558;2023-03-21T05:43:59;99735.16;;;5.27;77.93
78841;BME280;68379;47.190;27.558;2023-03-21T05:46:32;99728.70;;;5.35;77.69
78841;BME280;68379;47.190;27.558;2023-03-21T05:49:04;99728.06;;;5.49;77.53
78841;BME280;68379;47.190;27.558;2023-03-21T05:51:35;99733.72;;;5.63;77.36
78841;BME280;68379;47.190;27.558;2023-03-21T05:54:07;99734.30;;;5.78;76.76
78841;BME280;68379;47.190;27.558;2023-03-21T05:56:46;99734.37;;;5.91;76.51
78841;BME280;68379;47.190;27.558;2023-03-21T05:59:18;99732.12;;;6.06;76.29
78841;BME280;68379;47.190;27.558;2023-03-21T06:01:50;99733.01;;;6.22;75.73
78841;BME280;68379;47.190;27.558;2023-03-21T06:04:23;99732.44;;;6.38;75.55
78841;BME280;68379;47.190;27.558;2023-03-21T06:06:55;99732.20;;;6.55;75.39
78841;BME280;68379;47.190;27.558;2023-03-21T06:09:27;99734.05;;;6.72;74.93
78841;BME280;68379;47.190;27.558;2023-03-21T06:11:59;99728.89;;;6.88;74.77
78841;BME280;68379;47.190;27.558;2023-03-21T06:14:31;99733.89;;;7.05;74.09
78841;BME280;68379;47.190;27.558;2023-03-21T06:17:03;99735.39;;;7.15;73.53
78841;BME280;68379;47.190;27.558;2023-03-21T06:19:35;99734.46;;;7.23;73.39
78841;BME280;68379;47.190;27.558;2023-03-21T06:22:07;99740.19;;;7.38;73.77
78841;BME280;68379;47.190;27.558;2023-03-21T06:24:39;99736.37;;;7.55;72.96
78841;BME280;68379;47.190;27.558;2023-03-21T06:27:11;99737.81;;;7.66;72.08
78841;BME280;68379;47.190;27.558;2023-03-21T06:29:43;99735.15;;;7.79;72.82
78841;BME280;68379;47.190;27.558;2023-03-21T06:32:16;99735.61;;;7.99;72.53
78841;BME280;68379;47.190;27.558;2023-03-21T06:34:48;99732.62;;;8.16;72.22
78841;BME280;68379;47.190;27.558;2023-03-21T06:37:20;99736.74;;;8.36;71.95
78841;BME280;68379;47.190;27.558;2023-03-21T06:39:52;99737.70;;;8.56;71.37
78841;BME280;68379;47.190;27.558;2023-03-21T06:42:24;99735.86;;;8.75;71.11
78841;BME280;68379;47.190;27.558;2023-03-21T06:44:56;99736.33;;;8.92;70.66
78841;BME280;68379;47.190;27.558;2023-03-21T06:47:28;99739.42;;;9.10;70.24
78841;BME280;68379;47.190;27.558;2023-03-21T06:50:01;99730.92;;;9.21;69.57
78841;BME280;68379;47.190;27.558;2023-03-21T06:52:33;99739.96;;;9.39;68.89
78841;BME280;68379;47.190;27.558;2023-03-21T06:55:06;99742.41;;;9.54;69.12
78841;BME280;68379;47.190;27.558;2023-03-21T06:57:38;99738.23;;;9.71;68.36
78841;BME280;68379;47.190;27.558;2023-03-21T07:00:12;99740.39;;;9.85;67.69
78841;BME280;68379;47.190;27.558;2023-03-21T07:02:44;99738.91;;;10.00;66.71
78841;BME280;68379;47.190;27.558;2023-03-21T07:05:17;99739.83;;;10.13;66.37
78841;BME280;68379;47.190;27.558;2023-03-21T07:07:50;99738.04;;;10.27;66.02
78841;BME280;68379;47.190;27.558;2023-03-21T07:10:22;99737.48;;;10.42;65.51
78841;BME280;68379;47.190;27.558;2023-03-21T07:12:54;99732.48;;;10.57;65.08
78841;BME280;68379;47.190;27.558;2023-03-21T07:15:27;99734.09;;;10.73;64.77
78841;BME280;68379;47.190;27.558;2023-03-21T07:17:57;99734.55;;;10.91;63.85
78841;BME280;68379;47.190;27.558;2023-03-21T07:20:29;99735.04;;;11.05;62.43
78841;BME280;68379;47.190;27.558;2023-03-21T07:23:01;99736.25;;;11.18;62.77
78841;BME280;68379;47.190;27.558;2023-03-21T07:25:34;99741.70;;;11.35;62.95
78841;BME280;68379;47.190;27.558;2023-03-21T07:28:06;99740.17;;;11.57;62.47
78841;BME280;68379;47.190;27.558;2023-03-21T07:30:39;99740.60;;;11.75;61.78
78841;BME280;68379;47.190;27.558;2023-03-21T07:33:12;99743.35;;;11.88;61.62
78841;BME280;68379;47.190;27.558;2023-03-21T07:35:44;99745.41;;;12.02;60.85
78841;BME280;68379;47.190;27.558;2023-03-21T07:38:16;99737.62;;;12.13;60.93
78841;BME280;68379;47.190;27.558;2023-03-21T07:40:49;99740.02;;;12.26;60.17
78841;BME280;68379;47.190;27.558;2023-03-21T07:43:21;99747.73;;;12.39;59.53
78841;BME280;68379;47.190;27.558;2023-03-21T07:45:57;99749.41;;;12.44;59.07
78841;BME280;68379;47.190;27.558;2023-03-21T07:48:30;99754.73;;;12.40;59.47
78841;BME280;68379;47.190;27.558;2023-03-21T07:51:03;99751.20;;;12.36;58.01
78841;BME280;68379;47.190;27.558;2023-03-21T07:53:35;99747.66;;;12.32;57.13
78841;BME280;68379;47.190;27.558;2023-03-21T07:56:09;99747.70;;;12.39;57.34
78841;BME280;68379;47.190;27.558;2023-03-21T07:58:41;99750.52;;;12.47;57.47
78841;BME280;68379;47.190;27.558;2023-03-21T08:01:14;99752.52;;;12.53;57.45
78841;BME280;68379;47.190;27.558;2023-03-21T08:03:45;99747.41;;;12.60;57.78
78841;BME280;68379;47.190;27.558;2023-03-21T08:06:17;99748.09;;;12.64;57.27
78841;BME280;68379;47.190;27.558;2023-03-21T08:08:50;99749.39;;;12.63;56.72
78841;BME280;68379;47.190;27.558;2023-03-21T08:11:22;99747.52;;;12.61;56.42
78841;BME280;68379;47.190;27.558;2023-03-21T08:13:54;99744.57;;;12.63;57.56
78841;BME280;68379;47.190;27.558;2023-03-21T08:16:27;99746.73;;;12.73;56.46
78841;BME280;68379;47.190;27.558;2023-03-21T08:18:59;99746.93;;;12.76;56.66
78841;BME280;68379;47.190;27.558;2023-03-21T08:21:32;99747.86;;;12.79;56.18
78841;BME280;68379;47.190;27.558;2023-03-21T08:24:05;99749.77;;;12.80;56.61
78841;BME280;68379;47.190;27.558;2023-03-21T08:26:38;99748.55;;;12.79;56.48
78841;BME280;68379;47.190;27.558;2023-03-21T08:29:10;99748.81;;;12.78;55.46
78841;BME280;68379;47.190;27.558;2023-03-21T08:31:42;99746.99;;;12.75;55.12
78841;BME280;68379;47.190;27.558;2023-03-21T08:34:15;99750.06;;;12.78;55.44
78841;BME280;68379;47.190;27.558;2023-03-21T08:36:47;99751.86;;;12.85;55.39
78841;BME280;68379;47.190;27.558;2023-03-21T08:39:19;99748.24;;;12.93;55.73
78841;BME280;68379;47.190;27.558;2023-03-21T08:41:53;99746.73;;;13.05;55.67
78841;BME280;68379;47.190;27.558;2023-03-21T08:44:25;99749.71;;;13.16;55.38
78841;BME280;68379;47.190;27.558;2023-03-21T08:46:57;99750.97;;;13.30;54.69
78841;BME280;68379;47.190;27.558;2023-03-21T08:49:29;99752.86;;;13.48;54.52
78841;BME280;68379;47.190;27.558;2023-03-21T08:52:01;99747.45;;;13.60;54.89
78841;BME280;68379;47.190;27.558;2023-03-21T08:54:33;99746.05;;;13.76;54.39
78841;BME280;68379;47.190;27.558;2023-03-21T08:57:05;99749.98;;;13.82;53.69
78841;BME280;68379;47.190;27.558;2023-03-21T08:59:38;99746.30;;;13.85;53.17
78841;BME280;68379;47.190;27.558;2023-03-21T09:02:10;99749.27;;;13.86;53.44
78841;BME280;68379;47.190;27.558;2023-03-21T09:04:44;99743.13;;;13.81;53.10
78841;BME280;68379;47.190;27.558;2023-03-21T09:07:16;99737.39;;;13.79;53.65
78841;BME280;68379;47.190;27.558;2023-03-21T09:09:49;99740.86;;;13.74;53.64
78841;BME280;68379;47.190;27.558;2023-03-21T09:12:22;99735.54;;;13.67;52.81
78841;BME280;68379;47.190;27.558;2023-03-21T09:14:54;99731.90;;;13.58;52.92
78841;BME280;68379;47.190;27.558;2023-03-21T09:17:27;99734.39;;;13.55;53.26
78841;BME280;68379;47.190;27.558;2023-03-21T09:19:59;99730.14;;;13.58;53.52
78841;BME280;68379;47.190;27.558;2023-03-21T09:22:41;99732.00;;;13.67;53.73
78841;BME280;68379;47.190;27.558;2023-03-21T09:25:13;99736.96;;;13.74;52.60
78841;BME280;68379;47.190;27.558;2023-03-21T09:27:46;99737.19;;;13.76;52.29
78841;BME280;68379;47.190;27.558;2023-03-21T09:30:19;99740.88;;;13.80;51.51
78841;BME280;68379;47.190;27.558;2023-03-21T09:32:51;99736.88;;;13.82;52.52
78841;BME280;68379;47.190;27.558;2023-03-21T09:35:25;99732.66;;;13.87;52.41
78841;BME280;68379;47.190;27.558;2023-03-21T09:37:58;99733.23;;;13.93;51.52
78841;BME280;68379;47.190;27.558;2023-03-21T09:40:46;99731.10;;;13.93;51.02
78841;BME280;68379;47.190;27.558;2023-03-21T09:43:35;99732.14;;;14.00;51.27
78841;BME280;68379;47.190;27.558;2023-03-21T09:46:15;99736.93;;;14.06;51.40
78841;BME280;68379;47.190;27.558;2023-03-21T09:48:58;99732.02;;;14.15;51.32
78841;BME280;68379;47.190;27.558;2023-03-21T09:51:34;99731.36;;;14.24;51.23
78841;BME280;68379;47.190;27.558;2023-03-21T09:54:10;99729.88;;;14.28;51.11
78841;BME280;68379;47.190;27.558;2023-03-21T09:56:45;99731.13;;;14.34;50.92
78841;BME280;68379;47.190;27.558;2023-03-21T09:59:26;99724.46;;;14.39;50.84
78841;BME280;68379;47.190;27.558;2023-03-21T10:02:00;99728.44;;;14.47;51.28
78841;BME280;68379;47.190;27.558;2023-03-21T10:04:33;99725.64;;;14.62;50.08
78841;BME280;68379;47.190;27.558;2023-03-21T10:07:08;99721.94;;;14.80;50.50
78841;BME280;68379;47.190;27.558;2023-03-21T10:09:48;99726.45;;;15.09;50.74
78841;BME280;68379;47.190;27.558;2023-03-21T10:12:23;99723.48;;;15.41;49.96
78841;BME280;68379;47.190;27.558;2023-03-21T10:15:01;99726.66;;;15.55;48.21
78841;BME280;68379;47.190;27.558;2023-03-21T10:17:37;99723.70;;;15.66;49.24
78841;BME280;68379;47.190;27.558;2023-03-21T10:20:16;99721.59;;;15.83;49.01
78841;BME280;68379;47.190;27.558;2023-03-21T10:22:52;99715.27;;;16.06;48.59
78841;BME280;68379;47.190;27.558;2023-03-21T10:25:31;99719.00;;;16.26;46.58
78841;BME280;68379;47.190;27.558;2023-03-21T10:28:06;99720.98;;;16.40;47.32
78841;BME280;68379;47.190;27.558;2023-03-21T10:30:42;99713.69;;;16.42;46.63
78841;BME280;68379;47.190;27.558;2023-03-21T10:33:18;99712.16;;;16.33;46.55
78841;BME280;68379;47.190;27.558;2023-03-21T10:35:53;99709.54;;;16.21;46.57
78841;BME280;68379;47.190;27.558;2023-03-21T10:38:26;99710.35;;;16.16;46.74
78841;BME280;68379;47.190;27.558;2023-03-21T10:40:59;99708.36;;;16.20;47.10
78841;BME280;68379;47.190;27.558;2023-03-21T10:43:37;99706.14;;;16.21;46.40
78841;BME280;68379;47.190;27.558;2023-03-21T10:46:15;99706.21;;;16.14;45.13
78841;BME280;68379;47.190;27.558;2023-03-21T10:48:52;99705.46;;;16.09;45.04
78841;BME280;68379;47.190;27.558;2023-03-21T10:51:29;99702.56;;;16.10;45.84
78841;BME280;68379;47.190;27.558;2023-03-21T10:54:05;99704.24;;;16.11;45.47
78841;BME280;68379;47.190;27.558;2023-03-21T10:56:43;99701.91;;;16.29;45.12
78841;BME280;68379;47.190;27.558;2023-03-21T10:59:19;99701.06;;;16.39;44.68
78841;BME280;68379;47.190;27.558;2023-03-21T11:01:56;99702.80;;;16.39;44.55
78841;BME280;68379;47.190;27.558;2023-03-21T11:04:30;99704.48;;;16.38;44.41
78841;BME280;68379;47.190;27.558;2023-03-21T11:07:04;99701.86;;;16.35;44.16
78841;BME280;68379;47.190;27.558;2023-03-21T11:09:48;99696.84;;;16.24;43.38
78841;BME280;68379;47.190;27.558;2023-03-21T11:12:30;99694.61;;;16.26;44.20
78841;BME280;68379;47.190;27.558;2023-03-21T11:15:27;99693.45;;;16.41;43.97
78841;BME280;68379;47.190;27.558;2023-03-21T11:18:11;99689.16;;;16.52;42.87
78841;BME280;68379;47.190;27.558;2023-03-21T11:20:50;99680.39;;;16.60;42.75
78841;BME280;68379;47.190;27.558;2023-03-21T11:23:27;99679.38;;;16.81;43.31
78841;BME280;68379;47.190;27.558;2023-03-21T11:26:02;99677.90;;;16.97;42.30
78841;BME280;68379;47.190;27.558;2023-03-21T11:28:41;99673.60;;;17.06;42.24
78841;BME280;68379;47.190;27.558;2023-03-21T11:31:14;99670.45;;;17.23;41.68
78841;BME280;68379;47.190;27.558;2023-03-21T11:33:53;99672.39;;;17.36;41.10
78841;BME280;68379;47.190;27.558;2023-03-21T11:36:32;99664.25;;;17.45;41.17
78841;BME280;68379;47.190;27.558;2023-03-21T11:39:22;99663.91;;;17.57;40.78
78841;BME280;68379;47.190;27.558;2023-03-21T11:42:00;99658.50;;;17.60;39.28
78841;BME280;68379;47.190;27.558;2023-03-21T11:44:34;99659.53;;;17.74;39.17
78841;BME280;68379;47.190;27.558;2023-03-21T11:47:13;99656.51;;;17.81;38.12
78841;BME280;68379;47.190;27.558;2023-03-21T11:49:45;99653.35;;;17.83;38.52
78841;BME280;68379;47.190;27.558;2023-03-21T11:52:24;99651.34;;;17.81;37.63
78841;BME280;68379;47.190;27.558;2023-03-21T11:55:22;99650.32;;;17.88;38.20
78841;BME280;68379;47.190;27.558;2023-03-21T11:58:02;99652.63;;;18.12;38.27
78841;BME280;68379;47.190;27.558;2023-03-21T12:00:44;99648.88;;;18.15;37.49
78841;BME280;68379;47.190;27.558;2023-03-21T12:06:33;99647.23;;;18.15;37.82
78841;BME280;68379;47.190;27.558;2023-03-21T12:09:18;99642.21;;;18.18;38.29
78841;BME280;68379;47.190;27.558;2023-03-21T12:12:02;99639.05;;;18.32;37.36
78841;BME280;68379;47.190;27.558;2023-03-21T12:14:45;99640.14;;;18.32;37.31
78841;BME280;68379;47.190;27.558;2023-03-21T12:17:28;99636.03;;;18.36;36.19
78841;BME280;68379;47.190;27.558;2023-03-21T12:20:17;99631.94;;;18.34;35.77
78841;BME280;68379;47.190;27.558;2023-03-21T12:23:04;99630.30;;;18.46;36.41
78841;BME280;68379;47.190;27.558;2023-03-21T12:25:44;99628.39;;;18.66;37.06
78841;BME280;68379;47.190;27.558;2023-03-21T12:28:27;99626.83;;;18.82;37.04
78841;BME280;68379;47.190;27.558;2023-03-21T12:31:11;99624.23;;;18.93;36.12
78841;BME280;68379;47.190;27.558;2023-03-21T12:34:15;99622.07;;;18.95;35.93
78841;BME280;68379;47.190;27.558;2023-03-21T12:37:07;99616.35;;;18.97;36.38
78841;BME280;68379;47.190;27.558;2023-03-21T12:39:47;99616.55;;;18.99;35.74
78841;BME280;68379;47.190;27.558;2023-03-21T12:42:39;99613.98;;;19.04;36.02
78841;BME280;68379;47.190;27.558;2023-03-21T12:45:20;99616.50;;;19.14;35.57
78841;BME280;68379;47.190;27.558;2023-03-21T12:47:59;99613.29;;;19.09;34.44
78841;BME280;68379;47.190;27.558;2023-03-21T12:50:36;99609.92;;;19.04;35.49
78841;BME280;68379;47.190;27.558;2023-03-21T12:53:22;99608.42;;;19.05;35.47
78841;BME280;68379;47.190;27.558;2023-03-21T12:56:03;99603.21;;;19.02;35.08
78841;BME280;68379;47.190;27.558;2023-03-21T12:58:43;99602.99;;;19.03;35.13
78841;BME280;68379;47.190;27.558;2023-03-21T13:01:18;99603.00;;;19.07;34.91
78841;BME280;68379;47.190;27.558;2023-03-21T13:04:04;99597.36;;;19.09;34.29
78841;BME280;68379;47.190;27.558;2023-03-21T13:06:39;99593.52;;;19.07;33.90
78841;BME280;68379;47.190;27.558;2023-03-21T13:09:17;99596.48;;;19.06;34.01
78841;BME280;68379;47.190;27.558;2023-03-21T13:11:57;99596.47;;;19.11;34.85
78841;BME280;68379;47.190;27.558;2023-03-21T13:14:35;99592.31;;;19.12;34.53
78841;BME280;68379;47.190;27.558;2023-03-21T13:17:15;99590.72;;;19.09;34.99
78841;BME280;68379;47.190;27.558;2023-03-21T13:19:54;99589.79;;;19.21;34.59
78841;BME280;68379;47.190;27.558;2023-03-21T13:22:31;99586.64;;;19.20;34.47
78841;BME280;68379;47.190;27.558;2023-03-21T13:25:14;99585.23;;;19.26;35.03
78841;BME280;68379;47.190;27.558;2023-03-21T13:27:54;99579.64;;;19.36;34.84
78841;BME280;68379;47.190;27.558;2023-03-21T13:30:31;99574.72;;;19.50;34.26
78841;BME280;68379;47.190;27.558;2023-03-21T13:33:06;99572.60;;;19.59;34.98
78841;BME280;68379;47.190;27.558;2023-03-21T13:35:40;99569.73;;;19.68;34.14
78841;BME280;68379;47.190;27.558;2023-03-21T13:38:17;99568.02;;;19.89;34.43
78841;BME280;68379;47.190;27.558;2023-03-21T13:40:55;99562.89;;;20.18;32.24
78841;BME280;68379;47.190;27.558;2023-03-21T13:43:51;99558.02;;;20.44;33.44
78841;BME280;68379;47.190;27.558;2023-03-21T13:46:44;99554.66;;;20.90;32.13
78841;BME280;68379;47.190;27.558;2023-03-21T13:49:28;99555.33;;;21.07;32.26